createdAt,value
2018-06-30T00:00:56.309Z,12.93
2018-06-30T00:03:29.349Z,12.90
2018-06-30T00:05:57.945Z,12.89
2018-06-30T00:08:26.776Z,12.88
2018-06-30T00:10:58.194Z,12.86
2018-06-30T00:13:27.097Z,12.84
2018-06-30T00:15:55.545Z,12.83
2018-06-30T00:18:23.975Z,12.82
2018-06-30T00:20:53.689Z,12.77
2018-06-30T00:23:22.122Z,12.74
2018-06-30T00:25:50.559Z,12.72
2018-06-30T00:28:19.246Z,12.73
2018-06-30T00:30:47.789Z,12.71
2018-06-30T00:33:16.190Z,12.67
2018-06-30T00:35:45.366Z,12.68
2018-06-30T00:38:13.812Z,12.68
2018-06-30T00:40:42.253Z,12.70
2018-06-30T00:43:11.321Z,12.71
2018-06-30T00:45:39.737Z,12.71
2018-06-30T00:48:08.286Z,12.68
2018-06-30T00:50:37.309Z,12.69
2018-06-30T00:53:05.785Z,12.67
2018-06-30T00:55:34.255Z,12.68
2018-06-30T00:58:03.841Z,12.67
2018-06-30T01:00:32.433Z,12.67
2018-06-30T01:03:02.028Z,12.66
2018-06-30T01:05:30.765Z,12.64
2018-06-30T01:07:59.529Z,12.60
2018-06-30T01:10:27.985Z,12.59
2018-06-30T01:12:56.461Z,12.56
2018-06-30T01:15:25.269Z,12.52
2018-06-30T01:17:53.728Z,12.48
2018-06-30T01:20:22.930Z,12.45
2018-06-30T01:22:51.377Z,12.42
2018-06-30T01:25:19.889Z,12.39
2018-06-30T01:27:48.429Z,12.35
2018-06-30T01:30:17.113Z,12.31
2018-06-30T01:32:45.853Z,12.26
2018-06-30T01:35:14.409Z,12.23
2018-06-30T01:37:42.837Z,12.20
2018-06-30T01:40:11.537Z,12.17
2018-06-30T01:42:40.490Z,12.14
2018-06-30T01:45:08.924Z,12.11
2018-06-30T01:47:37.393Z,12.08
2018-06-30T01:50:06.709Z,12.06
2018-06-30T01:52:35.127Z,12.03
2018-06-30T01:55:03.612Z,12.00
2018-06-30T01:57:32.329Z,11.98
2018-06-30T02:00:00.870Z,11.97
2018-06-30T02:02:30.294Z,11.95
2018-06-30T02:04:59.052Z,11.91
2018-06-30T02:07:27.517Z,11.88
2018-06-30T02:09:56.001Z,11.87
2018-06-30T02:12:24.812Z,11.86
2018-06-30T02:14:53.272Z,11.84
2018-06-30T02:17:21.741Z,11.82
2018-06-30T02:19:50.330Z,11.83
2018-06-30T02:22:19.202Z,11.81
2018-06-30T02:24:47.670Z,11.80
2018-06-30T02:27:16.799Z,11.80
2018-06-30T02:29:45.253Z,11.81
2018-06-30T02:32:13.708Z,11.79
2018-06-30T02:34:42.877Z,11.80
2018-06-30T02:37:11.306Z,11.79
2018-06-30T02:39:40.741Z,11.79
2018-06-30T02:42:09.749Z,11.79
2018-06-30T02:44:38.443Z,11.79
2018-06-30T02:47:06.930Z,11.79
2018-06-30T02:49:35.577Z,11.79
2018-06-30T02:52:04.761Z,11.78
2018-06-30T02:54:33.281Z,11.77
2018-06-30T02:57:01.798Z,11.75
2018-06-30T02:59:30.680Z,11.73
2018-06-30T03:01:59.186Z,11.75
2018-06-30T03:04:28.237Z,11.75
2018-06-30T03:06:56.778Z,11.74
2018-06-30T03:09:25.261Z,11.71
2018-06-30T03:11:53.769Z,11.71
2018-06-30T03:14:22.589Z,11.71
2018-06-30T03:16:51.041Z,11.71
2018-06-30T03:19:20.350Z,11.73
2018-06-30T03:21:48.899Z,11.74
2018-06-30T03:24:17.414Z,11.74
2018-06-30T03:26:46.089Z,11.74
2018-06-30T03:29:14.705Z,11.73
2018-06-30T03:31:43.354Z,11.75
2018-06-30T03:34:11.863Z,11.74
2018-06-30T03:36:40.438Z,11.73
2018-06-30T03:39:10.323Z,11.74
2018-06-30T03:41:38.873Z,11.74
2018-06-30T03:44:07.389Z,11.75
2018-06-30T03:46:35.868Z,11.77
2018-06-30T03:49:05.276Z,11.82
2018-06-30T03:51:33.798Z,11.86
2018-06-30T03:54:02.613Z,11.87
2018-06-30T03:56:33.181Z,11.89
2018-06-30T03:59:01.615Z,11.90
2018-06-30T04:01:30.341Z,11.91
2018-06-30T04:03:59.158Z,11.91
2018-06-30T04:06:27.585Z,11.91
2018-06-30T04:08:56.387Z,11.93
2018-06-30T04:11:24.825Z,11.95
2018-06-30T04:13:53.726Z,11.96
2018-06-30T04:16:22.437Z,11.98
2018-06-30T04:18:50.865Z,12.02
2018-06-30T04:21:19.297Z,12.03
2018-06-30T04:23:48.153Z,12.06
2018-06-30T04:26:16.989Z,12.06
2018-06-30T04:28:45.433Z,12.07
2018-06-30T04:31:14.798Z,12.09
2018-06-30T04:33:43.413Z,12.13
2018-06-30T04:36:11.837Z,12.16
2018-06-30T04:38:40.329Z,12.19
2018-06-30T04:41:09.201Z,12.22
2018-06-30T04:43:37.720Z,12.22
2018-06-30T04:46:06.221Z,12.27
2018-06-30T04:48:34.801Z,12.32
2018-06-30T04:51:03.239Z,12.40
2018-06-30T04:53:31.744Z,12.45
2018-06-30T04:56:00.465Z,12.50
2018-06-30T04:58:28.877Z,12.56
2018-06-30T05:00:57.389Z,12.62
2018-06-30T05:03:26.352Z,12.65
2018-06-30T05:05:54.784Z,12.73
2018-06-30T05:08:23.281Z,12.73
2018-06-30T05:10:53.529Z,12.77
2018-06-30T05:13:22.113Z,12.84
2018-06-30T05:15:50.736Z,12.90
2018-06-30T05:18:20.101Z,12.93
2018-06-30T05:20:48.536Z,12.91
2018-06-30T05:23:17.036Z,12.90
2018-06-30T05:25:45.859Z,12.93
2018-06-30T05:28:14.282Z,13.01
2018-06-30T05:30:42.785Z,13.07
2018-06-30T05:33:11.809Z,13.13
2018-06-30T05:35:40.282Z,13.19
2018-06-30T05:38:08.776Z,13.29
2018-06-30T05:40:37.294Z,13.39
2018-06-30T05:43:06.111Z,13.43
2018-06-30T05:45:34.609Z,13.45
2018-06-30T05:48:03.605Z,13.51
2018-06-30T05:50:32.089Z,13.57
2018-06-30T05:53:00.609Z,13.63
2018-06-30T05:55:29.357Z,13.72
2018-06-30T05:57:57.962Z,13.77
2018-06-30T06:00:26.569Z,13.81
2018-06-30T06:02:55.412Z,13.85
2018-06-30T06:05:23.925Z,13.92
2018-06-30T06:07:52.374Z,13.93
2018-06-30T06:10:21.166Z,13.97
2018-06-30T06:12:49.784Z,14.03
2018-06-30T06:15:18.247Z,14.09
2018-06-30T06:17:46.917Z,14.17
2018-06-30T06:20:15.790Z,14.26
2018-06-30T06:22:44.361Z,14.32
2018-06-30T06:25:12.909Z,14.38
2018-06-30T06:27:41.482Z,14.44
2018-06-30T06:30:10.386Z,14.51
2018-06-30T06:32:39.274Z,14.60
2018-06-30T06:35:08.214Z,14.67
2018-06-30T06:37:36.913Z,14.70
2018-06-30T06:40:05.829Z,14.71
2018-06-30T06:42:34.402Z,14.73
2018-06-30T06:45:02.848Z,14.85
2018-06-30T06:47:31.757Z,14.87
2018-06-30T06:50:00.602Z,14.91
2018-06-30T06:52:29.113Z,14.99
2018-06-30T06:54:57.821Z,15.07
2018-06-30T06:57:26.518Z,15.11
2018-06-30T06:59:55.090Z,15.17
2018-06-30T07:02:23.524Z,15.25
2018-06-30T07:04:52.015Z,15.32
2018-06-30T07:07:20.503Z,15.41
2018-06-30T07:09:49.409Z,15.51
2018-06-30T07:12:18.129Z,15.61
2018-06-30T07:14:47.928Z,15.68
2018-06-30T07:17:16.353Z,15.77
2018-06-30T07:19:44.773Z,15.91
2018-06-30T07:22:13.217Z,16.09
2018-06-30T07:24:42.227Z,16.23
2018-06-30T07:27:10.718Z,16.39
2018-06-30T07:29:39.199Z,16.56
2018-06-30T07:32:07.634Z,16.74
2018-06-30T07:34:36.313Z,16.96
2018-06-30T07:37:05.273Z,17.22
2018-06-30T07:39:33.701Z,17.53
2018-06-30T07:42:02.221Z,17.94
2018-06-30T07:44:30.727Z,18.41
2018-06-30T07:46:59.273Z,19.11
2018-06-30T07:49:27.886Z,19.94
2018-06-30T07:51:56.432Z,20.70
2018-06-30T07:54:25.159Z,21.39
2018-06-30T07:56:53.845Z,22.05
2018-06-30T07:59:22.527Z,22.50
2018-06-30T08:01:51.722Z,22.86
2018-06-30T08:04:20.441Z,23.31
2018-06-30T08:06:49.037Z,23.75
2018-06-30T08:09:17.523Z,24.18
2018-06-30T08:11:46.261Z,24.50
2018-06-30T08:14:14.717Z,24.57
2018-06-30T08:16:43.877Z,24.28
2018-06-30T08:19:12.666Z,24.45
2018-06-30T08:21:41.193Z,24.55
2018-06-30T08:24:10.088Z,24.45
2018-06-30T08:26:38.645Z,24.60
2018-06-30T08:29:07.106Z,24.72
2018-06-30T08:31:35.590Z,24.91
2018-06-30T08:34:04.425Z,25.36
2018-06-30T08:36:32.903Z,25.72
2018-06-30T08:39:01.313Z,25.79
2018-06-30T08:41:30.417Z,25.95
2018-06-30T08:43:58.929Z,25.88
2018-06-30T08:46:27.730Z,25.88
2018-06-30T08:48:56.226Z,26.17
2018-06-30T08:51:24.723Z,26.29
2018-06-30T08:53:53.501Z,25.76
2018-06-30T08:56:22.285Z,25.62
2018-06-30T08:58:50.758Z,25.14
2018-06-30T09:01:19.513Z,25.06
2018-06-30T09:03:48.099Z,25.22
2018-06-30T09:06:16.706Z,25.09
2018-06-30T09:08:45.382Z,25.05
2018-06-30T09:11:14.057Z,25.58
2018-06-30T09:13:42.552Z,26.10
2018-06-30T09:16:11.000Z,26.75
2018-06-30T09:18:40.598Z,27.27
2018-06-30T09:21:09.182Z,27.13
2018-06-30T09:23:38.001Z,26.30
2018-06-30T09:26:06.569Z,25.40
2018-06-30T09:28:35.098Z,24.44
2018-06-30T09:31:03.701Z,23.59
2018-06-30T09:33:32.261Z,23.51
2018-06-30T09:36:00.714Z,23.61
2018-06-30T09:38:29.158Z,23.33
2018-06-30T09:40:57.765Z,23.49
2018-06-30T09:43:26.217Z,23.55
2018-06-30T09:45:54.766Z,23.20
2018-06-30T09:50:50.803Z,22.13
2018-06-30T09:53:19.388Z,21.95
2018-06-30T09:55:47.873Z,22.73
2018-06-30T09:58:17.738Z,23.66
2018-06-30T10:00:55.293Z,24.01
2018-06-30T10:03:24.530Z,23.58
2018-06-30T10:05:54.125Z,23.03
2018-06-30T10:08:22.673Z,22.61
2018-06-30T10:10:51.277Z,22.20
2018-06-30T10:13:19.726Z,21.77
2018-06-30T10:15:48.514Z,21.44
2018-06-30T10:18:17.095Z,21.18
2018-06-30T10:20:45.824Z,21.35
2018-06-30T10:23:14.281Z,22.30
2018-06-30T10:25:42.881Z,22.79
2018-06-30T10:28:11.874Z,22.70
2018-06-30T10:30:41.191Z,22.29
2018-06-30T10:33:10.425Z,21.76
2018-06-30T10:35:39.198Z,21.42
2018-06-30T10:38:07.704Z,21.40
2018-06-30T10:40:36.275Z,22.21
2018-06-30T10:43:05.585Z,23.16
2018-06-30T10:45:34.172Z,24.03
2018-06-30T10:48:02.657Z,24.88
2018-06-30T10:50:31.323Z,25.30
2018-06-30T10:53:00.478Z,24.85
2018-06-30T10:55:28.989Z,24.00
2018-06-30T10:57:57.878Z,23.18
2018-06-30T11:00:26.413Z,22.76
2018-06-30T11:02:54.829Z,23.35
2018-06-30T11:05:23.357Z,23.79
2018-06-30T11:07:52.319Z,23.82
2018-06-30T11:10:20.801Z,24.24
2018-06-30T11:12:50.007Z,24.74
2018-06-30T11:15:18.483Z,24.69
2018-06-30T11:17:47.003Z,24.00
2018-06-30T11:20:15.862Z,23.13
2018-06-30T11:22:45.749Z,22.60
2018-06-30T11:25:14.260Z,22.78
2018-06-30T11:27:43.133Z,23.18
2018-06-30T11:30:11.553Z,24.08
2018-06-30T11:32:40.102Z,24.14
2018-06-30T11:35:08.725Z,23.66
2018-06-30T11:37:37.201Z,23.26
2018-06-30T11:40:05.856Z,23.03
2018-06-30T11:42:34.392Z,23.52
2018-06-30T11:45:02.889Z,23.44
2018-06-30T11:47:31.725Z,22.95
2018-06-30T11:50:00.237Z,22.48
2018-06-30T11:52:28.746Z,22.08
2018-06-30T11:54:57.762Z,21.80
2018-06-30T11:57:26.351Z,21.67
2018-06-30T11:59:54.773Z,21.71
2018-06-30T12:02:23.492Z,22.14
2018-06-30T12:04:51.937Z,22.10
2018-06-30T12:07:20.355Z,21.88
2018-06-30T12:09:49.037Z,21.65
2018-06-30T12:12:17.505Z,21.38
2018-06-30T12:14:45.940Z,21.22
2018-06-30T12:17:14.521Z,21.93
2018-06-30T12:19:42.946Z,22.67
2018-06-30T12:22:11.470Z,23.18
2018-06-30T12:24:40.177Z,23.05
2018-06-30T12:27:08.882Z,23.69
2018-06-30T12:29:37.302Z,24.36
2018-06-30T12:32:05.869Z,24.81
2018-06-30T12:34:34.457Z,25.36
2018-06-30T12:37:03.927Z,25.83
2018-06-30T12:39:32.522Z,26.33
2018-06-30T12:42:01.989Z,27.13
2018-06-30T12:44:30.412Z,27.03
2018-06-30T12:46:59.303Z,25.97
2018-06-30T12:49:27.822Z,25.17
2018-06-30T12:51:56.354Z,25.59
2018-06-30T12:54:25.190Z,26.44
2018-06-30T12:56:53.685Z,27.08
2018-06-30T12:59:22.121Z,27.47
2018-06-30T13:01:50.653Z,27.62
2018-06-30T13:04:19.234Z,26.85
2018-06-30T13:06:48.441Z,25.82
2018-06-30T13:09:17.130Z,25.18
2018-06-30T13:11:46.850Z,25.78
2018-06-30T13:14:15.273Z,26.62
2018-06-30T13:16:43.976Z,27.15
2018-06-30T13:19:12.738Z,27.11
2018-06-30T13:21:41.173Z,26.04
2018-06-30T13:24:09.642Z,25.39
2018-06-30T13:26:38.481Z,25.44
2018-06-30T13:29:07.048Z,25.69
2018-06-30T13:31:35.714Z,26.51
2018-06-30T13:34:04.334Z,26.62
2018-06-30T13:36:32.787Z,25.87
2018-06-30T13:39:01.410Z,24.86
2018-06-30T13:41:30.057Z,24.33
2018-06-30T13:43:58.566Z,25.05
2018-06-30T13:46:27.424Z,25.09
2018-06-30T13:48:55.942Z,25.09
2018-06-30T13:51:24.534Z,25.51
2018-06-30T13:53:53.089Z,26.32
2018-06-30T13:56:21.837Z,26.06
2018-06-30T13:58:50.352Z,25.38
2018-06-30T14:01:18.938Z,25.84
2018-06-30T14:03:47.726Z,26.77
2018-06-30T14:06:16.194Z,27.31
2018-06-30T14:08:44.665Z,26.49
2018-06-30T14:11:13.493Z,25.83
2018-06-30T14:13:42.034Z,26.09
2018-06-30T14:16:10.513Z,26.08
2018-06-30T14:18:39.757Z,25.66
2018-06-30T14:21:08.145Z,26.16
2018-06-30T14:23:36.658Z,26.92
2018-06-30T14:26:05.449Z,27.64
2018-06-30T14:28:34.155Z,27.80
2018-06-30T14:31:02.966Z,27.44
2018-06-30T14:33:32.069Z,27.84
2018-06-30T14:36:01.130Z,27.15
2018-06-30T14:38:29.741Z,27.11
2018-06-30T14:40:58.534Z,27.05
2018-06-30T14:43:27.057Z,27.42
2018-06-30T14:45:55.564Z,28.20
2018-06-30T14:48:24.073Z,28.40
2018-06-30T14:50:52.573Z,27.68
2018-06-30T14:53:21.055Z,27.73
2018-06-30T14:55:49.529Z,28.24
2018-06-30T14:58:18.373Z,28.27
2018-06-30T15:00:47.157Z,28.52
2018-06-30T15:03:15.829Z,28.75
2018-06-30T15:05:44.337Z,29.34
2018-06-30T15:08:12.877Z,29.81
2018-06-30T15:10:41.329Z,30.07
2018-06-30T15:13:09.861Z,29.94
2018-06-30T15:15:38.473Z,29.92
2018-06-30T15:18:07.657Z,29.12
2018-06-30T15:20:36.488Z,28.31
2018-06-30T15:23:05.013Z,28.78
2018-06-30T15:25:33.750Z,28.53
2018-06-30T15:28:02.558Z,28.66
2018-06-30T15:30:31.373Z,28.56
2018-06-30T15:33:00.569Z,28.68
2018-06-30T15:35:29.345Z,28.48
2018-06-30T15:37:58.015Z,28.14
2018-06-30T15:40:26.442Z,28.07
2018-06-30T15:42:55.533Z,28.07
2018-06-30T15:45:24.005Z,27.84
2018-06-30T15:47:52.553Z,28.23
2018-06-30T15:50:21.048Z,28.34
2018-06-30T15:52:49.526Z,28.49
2018-06-30T15:55:18.374Z,28.89
2018-06-30T15:57:46.820Z,29.11
2018-06-30T16:00:15.317Z,28.98
2018-06-30T16:02:43.848Z,28.81
2018-06-30T16:05:12.358Z,28.44
2018-06-30T16:07:40.818Z,28.07
2018-06-30T16:10:09.513Z,28.29
2018-06-30T16:12:38.265Z,27.96
2018-06-30T16:15:06.861Z,27.73
2018-06-30T16:17:35.594Z,27.76
2018-06-30T16:20:04.582Z,27.70
2018-06-30T16:22:33.050Z,27.70
2018-06-30T16:25:02.593Z,27.40
2018-06-30T16:27:31.343Z,27.39
2018-06-30T16:30:00.406Z,27.38
2018-06-30T16:32:29.863Z,27.49
2018-06-30T16:35:00.202Z,27.40
2018-06-30T16:37:29.469Z,27.34
2018-06-30T16:39:58.049Z,27.18
2018-06-30T16:42:26.485Z,26.99
2018-06-30T16:44:55.217Z,26.94
2018-06-30T16:47:23.863Z,27.01
2018-06-30T16:49:52.451Z,26.66
2018-06-30T16:52:20.982Z,26.33
2018-06-30T16:54:49.805Z,26.00
2018-06-30T16:57:18.254Z,25.62
2018-06-30T16:59:46.861Z,25.11
2018-06-30T17:02:15.550Z,24.49
2018-06-30T17:04:44.098Z,23.75
2018-06-30T17:07:12.649Z,23.04
2018-06-30T17:09:41.390Z,22.28
2018-06-30T17:12:09.829Z,21.70
2018-06-30T17:14:38.473Z,21.28
2018-06-30T17:17:07.057Z,20.92
2018-06-30T17:19:35.718Z,20.52
2018-06-30T17:22:04.274Z,20.14
2018-06-30T17:24:32.757Z,19.76
2018-06-30T17:27:01.733Z,19.53
2018-06-30T17:29:30.410Z,19.28
2018-06-30T17:32:00.192Z,19.13
2018-06-30T17:34:28.782Z,18.98
2018-06-30T17:36:57.285Z,18.87
2018-06-30T17:39:26.143Z,18.73
2018-06-30T17:41:54.593Z,18.68
2018-06-30T17:44:23.062Z,18.63
2018-06-30T17:46:51.622Z,18.52
2018-06-30T17:49:20.052Z,18.39
2018-06-30T17:51:48.654Z,18.20
2018-06-30T17:54:17.326Z,18.04
2018-06-30T17:56:45.770Z,17.91
2018-06-30T17:59:14.421Z,17.83
2018-06-30T18:01:43.173Z,17.76
2018-06-30T18:04:11.585Z,17.72
2018-06-30T18:06:40.283Z,17.68
2018-06-30T18:09:10.461Z,17.59
2018-06-30T18:11:38.941Z,17.45
2018-06-30T18:14:08.075Z,17.33
2018-06-30T18:16:36.722Z,17.26
2018-06-30T18:19:05.389Z,17.14
2018-06-30T18:21:34.667Z,17.06
2018-06-30T18:24:03.247Z,16.98
2018-06-30T18:26:31.761Z,16.87
2018-06-30T18:29:00.528Z,16.79
2018-06-30T18:31:29.079Z,16.73
2018-06-30T18:33:57.509Z,16.72
2018-06-30T18:36:26.477Z,16.71
2018-06-30T18:38:55.221Z,16.69
2018-06-30T18:41:23.657Z,16.69
2018-06-30T18:43:52.257Z,16.62
2018-06-30T18:46:21.133Z,16.51
2018-06-30T18:48:49.593Z,16.48
2018-06-30T18:51:18.195Z,16.46
2018-06-30T18:53:47.555Z,16.37
2018-06-30T18:56:15.990Z,16.27
2018-06-30T18:58:44.817Z,16.18
2018-06-30T19:01:13.421Z,16.08
2018-06-30T19:03:41.846Z,16.02
2018-06-30T19:06:10.494Z,15.98
2018-06-30T19:08:39.077Z,15.90
2018-06-30T19:11:07.581Z,15.85
2018-06-30T19:13:36.142Z,15.83
2018-06-30T19:16:06.065Z,15.84
2018-06-30T19:18:34.596Z,15.77
2018-06-30T19:21:03.583Z,15.76
2018-06-30T19:23:32.719Z,15.76
2018-06-30T19:26:01.222Z,15.75
2018-06-30T19:28:30.133Z,15.73
2018-06-30T19:30:58.833Z,15.64
2018-06-30T19:33:27.319Z,15.57
2018-06-30T19:35:56.085Z,15.50
2018-06-30T19:38:24.776Z,15.41
2018-06-30T19:40:53.223Z,15.35
2018-06-30T19:43:21.726Z,15.38
2018-06-30T19:45:50.248Z,15.39
2018-06-30T19:48:18.701Z,14.48
2018-06-30T19:50:47.550Z,15.21
2018-06-30T19:53:16.497Z,15.15
2018-06-30T19:55:45.028Z,15.12
2018-06-30T19:58:14.358Z,15.05
2018-06-30T20:00:42.910Z,14.97
2018-06-30T20:03:11.325Z,14.87
2018-06-30T20:05:40.052Z,14.78
2018-06-30T20:08:08.557Z,14.74
2018-06-30T20:10:36.989Z,14.68
2018-06-30T20:13:05.597Z,14.60
2018-06-30T20:15:35.181Z,14.53
2018-06-30T20:18:03.657Z,14.44
2018-06-30T20:20:32.593Z,14.38
2018-06-30T20:23:02.839Z,14.32
2018-06-30T20:25:32.105Z,14.29
2018-06-30T20:28:00.577Z,14.26
2018-06-30T20:30:29.686Z,14.23
2018-06-30T20:32:58.861Z,14.18
2018-06-30T20:35:27.549Z,14.11
2018-06-30T20:37:56.121Z,14.06
2018-06-30T20:40:24.925Z,14.01
2018-06-30T20:42:53.601Z,13.96
2018-06-30T20:45:22.176Z,13.92
2018-06-30T20:47:50.722Z,13.86
2018-06-30T20:50:19.545Z,13.81
2018-06-30T20:52:54.661Z,13.76
2018-06-30T20:55:23.550Z,13.71
2018-06-30T20:57:51.985Z,13.64
2018-06-30T21:00:20.498Z,13.60
2018-06-30T21:02:49.050Z,13.57
2018-06-30T21:05:17.469Z,13.54
2018-06-30T21:07:46.145Z,13.49
2018-06-30T21:10:15.003Z,13.44
2018-06-30T21:12:43.589Z,13.39
2018-06-30T21:15:12.317Z,13.33
2018-06-30T21:17:40.839Z,13.28
2018-06-30T21:20:09.369Z,13.24
2018-06-30T21:22:38.041Z,13.20
2018-06-30T21:25:06.966Z,13.17
2018-06-30T21:27:35.517Z,13.13
2018-06-30T21:30:04.986Z,13.10
2018-06-30T21:32:34.650Z,13.05
2018-06-30T21:35:03.601Z,13.01
2018-06-30T21:37:32.135Z,12.98
2018-06-30T21:40:01.062Z,12.95
2018-06-30T21:42:29.717Z,12.90
2018-06-30T21:44:58.235Z,12.85
2018-06-30T21:47:27.121Z,12.82
2018-06-30T21:49:55.666Z,12.78
2018-06-30T21:52:24.344Z,12.74
2018-06-30T21:54:53.218Z,12.70
2018-06-30T21:57:21.665Z,12.66
2018-06-30T21:59:50.367Z,12.62
2018-06-30T22:02:18.961Z,12.57
2018-06-30T22:04:47.438Z,12.52
2018-06-30T22:07:15.861Z,12.46
2018-06-30T22:09:44.737Z,12.42
2018-06-30T22:12:13.181Z,12.40
2018-06-30T22:14:41.611Z,12.34
2018-06-30T22:17:10.499Z,12.34
2018-06-30T22:19:38.940Z,12.31
2018-06-30T22:22:07.394Z,12.27
2018-06-30T22:24:36.082Z,12.21
2018-06-30T22:27:04.612Z,12.15
2018-06-30T22:29:33.334Z,12.12
2018-06-30T22:32:02.013Z,12.09
2018-06-30T22:34:30.453Z,12.06
2018-06-30T22:36:58.893Z,12.02
2018-06-30T22:39:38.553Z,11.99
2018-06-30T22:42:07.276Z,11.95
2018-06-30T22:44:35.854Z,11.89
2018-06-30T22:47:05.358Z,11.83
2018-06-30T22:49:34.838Z,11.80
2018-06-30T22:52:04.233Z,11.74
2018-06-30T22:54:32.811Z,11.69
2018-06-30T22:57:01.778Z,11.65
2018-06-30T22:59:30.206Z,11.60
2018-06-30T23:01:58.718Z,11.57
2018-06-30T23:04:27.380Z,11.54
2018-06-30T23:06:55.805Z,11.51
2018-06-30T23:09:24.284Z,11.48
2018-06-30T23:11:53.935Z,11.45
2018-06-30T23:14:22.380Z,11.41
2018-06-30T23:16:50.889Z,11.37
2018-06-30T23:19:19.321Z,11.35
2018-06-30T23:21:47.805Z,11.31
2018-06-30T23:24:16.341Z,11.25
2018-06-30T23:26:45.142Z,11.22
2018-06-30T23:29:13.571Z,11.21
2018-06-30T23:31:42.114Z,11.19
2018-06-30T23:34:10.709Z,11.16
2018-06-30T23:36:39.137Z,11.10
2018-06-30T23:39:10.045Z,11.08
2018-06-30T23:41:38.869Z,11.04
2018-06-30T23:44:07.713Z,11.02
2018-06-30T23:46:36.310Z,10.99
2018-06-30T23:49:05.538Z,10.96
2018-06-30T23:51:34.431Z,10.92
2018-06-30T23:54:02.891Z,10.88
2018-06-30T23:56:32.477Z,10.86
2018-06-30T23:59:00.947Z,10.83
